Time;durP1;ratioP1;P1;durP2;ratioP2;P2;SDS_P1;SDS_P2;PMS_P1;PMS_P2;Temp;Humidity;BMP_temperature;BMP_pressure;BME280_temperature;BME280_humidity;BME280_pressure;Samples;Min_cycle;Max_cycle;Signal;HPM_P1;HPM_P2
2021/12/05 00:23:19;;;;;;;30.93;15.47;;;2.90;99.90;;;;;;5021049;28;20955;-87
2021/12/05 00:25:50;;;;;;;7.73;4.40;;;;;;;;;;5018645;28;20976;-94
2021/12/05 00:34:10;;;;;;;7.03;1.60;;;;;;;;;;5024654;28;21424;-92
2021/12/05 00:45:40;;;;;;;1.73;0.90;;;2.90;99.90;;;;;;4955633;29;20506;-87
2021/12/05 00:56:29;;;;;;;3.93;1.30;;;2.90;99.90;;;;;;5015549;28;20444;-93
2021/12/05 00:59:33;;;;;;;2.20;0.97;;;;;;;;;;5015428;28;20476;-88
2021/12/05 01:02:32;;;;;;;2.10;0.93;;;2.90;99.90;;;;;;5015690;28;20546;-87
2021/12/05 01:05:21;;;;;;;2.90;0.90;;;2.90;99.90;;;;;;5013993;28;20455;-90
2021/12/05 01:08:08;;;;;;;1.80;0.70;;;;;;;;;;5015280;28;20492;-92
2021/12/05 01:10:56;;;;;;;2.67;1.33;;;;;;;;;;5015261;28;20503;-93
2021/12/05 01:16:18;;;;;;;1.40;0.87;;;2.90;99.90;;;;;;5009509;28;20471;-89
2021/12/05 01:18:45;;;;;;;3.23;1.00;;;;;;;;;;5010170;28;20842;-88
2021/12/05 01:21:20;;;;;;;2.30;0.90;;;2.80;99.90;;;;;;5011965;28;20449;-87
2021/12/05 01:23:57;;;;;;;6.37;0.97;;;2.70;99.90;;;;;;5014865;28;20461;-89
2021/12/05 01:26:29;;;;;;;1.90;0.70;;;;;;;;;;5014860;28;20556;-88
2021/12/05 01:29:08;;;;;;;1.90;0.90;;;2.90;99.90;;;;;;5025197;28;20492;-87
2021/12/05 01:31:46;;;;;;;3.70;1.27;;;2.80;99.90;;;;;;5026390;28;20453;-92
2021/12/05 01:34:26;;;;;;;0.80;0.60;;;;;;;;;;5014040;28;20453;-89
2021/12/05 01:37:08;;;;;;;1.10;0.80;;;;;;;;;;5014952;28;20456;-87
2021/12/05 01:39:50;;;;;;;3.03;1.00;;;2.70;99.90;;;;;;5014084;28;20461;-87
2021/12/05 01:50:57;;;;;;;6.63;1.10;;;2.80;99.90;;;;;;5014096;28;20492;-87
2021/12/05 02:01:55;;;;;;;2.03;0.97;;;2.70;99.90;;;;;;5013454;28;20483;-87
2021/12/05 02:10:45;;;;;;;1.00;0.60;;;2.60;99.90;;;;;;5014553;28;20509;-86
2021/12/05 02:16:00;;;;;;;1.20;0.63;;;;;;;;;;5014441;28;20428;-93
2021/12/05 02:32:49;;;;;;;2.63;1.10;;;;;;;;;;4994983;28;20525;-90
2021/12/05 02:35:39;;;;;;;1.23;0.83;;;2.50;99.90;;;;;;4993664;28;20446;-94
2021/12/05 02:41:09;;;;;;;9.30;2.53;;;;;;;;;;4984580;28;20458;-93
2021/12/05 02:43:39;;;;;;;2.00;0.70;;;;;;;;;;4994510;28;20537;-90
2021/12/05 02:46:07;;;;;;;1.00;0.63;;;;;;;;;;4994646;28;20453;-95
2021/12/05 02:48:37;;;;;;;1.00;0.90;;;2.50;99.90;;;;;;4993844;28;20497;-88
2021/12/05 02:51:10;;;;;;;2.73;0.90;;;2.50;99.90;;;;;;4995018;28;20480;-92
2021/12/05 02:53:42;;;;;;;1.73;0.60;;;2.60;99.90;;;;;;4998746;28;20457;-94
2021/12/05 02:56:10;;;;;;;1.00;0.90;;;;;;;;;;4998711;28;20457;-93
2021/12/05 02:58:43;;;;;;;2.27;1.00;;;;;;;;;;4998864;28;20461;-93
2021/12/05 03:01:18;;;;;;;1.53;0.80;;;2.60;99.90;;;;;;4999337;28;20441;-87
2021/12/05 03:03:47;;;;;;;3.13;0.90;;;2.60;99.90;;;;;;4997810;28;20499;-94
2021/12/05 03:06:20;;;;;;;2.10;1.07;;;2.60;99.90;;;;;;5000047;28;20507;-95
2021/12/05 03:08:51;;;;;;;1.80;0.70;;;2.60;99.90;;;;;;5000183;28;20561;-91
2021/12/05 03:11:18;;;;;;;0.73;0.60;;;;;;;;;;5000463;28;20468;-95
2021/12/05 03:13:46;;;;;;;3.20;1.00;;;;;;;;;;4999136;28;20449;-90
2021/12/05 03:16:15;;;;;;;1.57;0.90;;;2.60;99.90;;;;;;4998774;28;20656;-91
2021/12/05 03:18:43;;;;;;;6.73;1.87;;;2.60;99.90;;;;;;4996652;28;20457;-88
2021/12/05 03:21:11;;;;;;;1.80;1.20;;;;;;;;;;4998444;28;20445;-93
2021/12/05 03:23:41;;;;;;;2.10;1.07;;;2.70;99.90;;;;;;4997997;28;20446;-89
2021/12/05 03:26:13;;;;;;;1.97;0.93;;;2.70;99.90;;;;;;4997973;28;20453;-88
2021/12/05 03:28:40;;;;;;;4.33;1.60;;;;;;;;;;4997797;28;20497;-87
2021/12/05 03:31:09;;;;;;;0.40;0.30;;;2.70;99.90;;;;;;4997328;28;20452;-91
2021/12/05 03:33:36;;;;;;;0.40;0.37;;;2.70;99.90;;;;;;4997839;28;20453;-92
2021/12/05 03:36:04;;;;;;;0.40;0.30;;;2.70;99.90;;;;;;4997929;28;20524;-89
2021/12/05 03:38:32;;;;;;;3.37;0.70;;;;;;;;;;4996621;28;20460;-88
2021/12/05 03:40:59;;;;;;;3.30;1.20;;;;;;;;;;4997479;28;20457;-90
2021/12/05 03:43:27;;;;;;;0.87;0.37;;;2.80;99.90;;;;;;4997681;28;20446;-88
2021/12/05 03:45:57;;;;;;;2.10;0.73;;;2.80;99.90;;;;;;4997955;28;20450;-90
2021/12/05 03:48:28;;;;;;;1.10;0.80;;;2.80;99.90;;;;;;4997514;28;21012;-89
2021/12/05 03:50:55;;;;;;;6.73;1.07;;;;;;;;;;4996819;28;20806;-88
2021/12/05 03:53:23;;;;;;;7.40;1.23;;;2.70;99.90;;;;;;4997351;28;20449;-87
2021/12/05 03:55:52;;;;;;;1.27;0.83;;;2.70;99.90;;;;;;4997337;28;20464;-87
2021/12/05 03:58:20;;;;;;;7.97;1.63;;;2.70;99.90;;;;;;4997086;28;20855;-88
2021/12/05 04:00:55;;;;;;;1.23;0.80;;;2.70;99.90;;;;;;4997071;28;20449;-93
2021/12/05 04:03:23;;;;;;;4.57;1.37;;;2.70;99.90;;;;;;4997674;28;20456;-90
2021/12/05 04:05:51;;;;;;;2.23;0.93;;;;;;;;;;4998580;28;20445;-87
2021/12/05 04:08:20;;;;;;;2.10;0.67;;;2.80;99.90;;;;;;5009976;28;20504;-89
2021/12/05 04:10:50;;;;;;;2.93;1.10;;;2.70;99.90;;;;;;5009651;28;20535;-92
2021/12/05 04:13:18;;;;;;;0.70;0.30;;;2.70;99.90;;;;;;4997781;28;20442;-90
2021/12/05 04:15:45;;;;;;;1.13;0.70;;;;;;;;;;4997150;28;20453;-88
2021/12/05 04:18:13;;;;;;;3.40;1.13;;;2.60;99.90;;;;;;4997728;28;20454;-91
2021/12/05 04:20:40;;;;;;;0.97;0.70;;;;;;;;;;5011732;28;20487;-93
2021/12/05 04:23:08;;;;;;;1.53;0.90;;;;;;;;;;5014250;28;20455;-93
2021/12/05 04:25:37;;;;;;;1.73;0.90;;;;;;;;;;5017983;28;20820;-88
2021/12/05 04:28:04;;;;;;;6.67;1.23;;;;;;;;;;5017391;28;20488;-89
2021/12/05 04:30:32;;;;;;;4.10;1.00;;;;;;;;;;5017159;28;20449;-94
2021/12/05 04:32:59;;;;;;;5.67;1.67;;;;;;;;;;5016566;28;20464;-90
2021/12/05 04:35:28;;;;;;;1.50;0.50;;;3.50;99.90;;;;;;5014819;28;20453;-87
2021/12/05 04:37:55;;;;;;;2.83;0.63;;;;;;;;;;5016321;28;20456;-91
2021/12/05 04:40:22;;;;;;;3.20;0.83;;;;;;;;;;5016709;28;20476;-91
2021/12/05 04:42:50;;;;;;;3.03;0.83;;;;;;;;;;5016226;28;20451;-93
2021/12/05 04:45:21;;;;;;;0.47;0.40;;;2.50;99.90;;;;;;5014074;28;20452;-93
2021/12/05 04:47:49;;;;;;;0.90;0.40;;;;;;;;;;5015754;28;20484;-94
2021/12/05 04:50:17;;;;;;;7.30;0.80;;;2.30;99.90;;;;;;5015138;28;20445;-89
2021/12/05 04:52:46;;;;;;;7.20;1.13;;;2.30;99.90;;;;;;5015462;28;20453;-92
2021/12/05 04:55:13;;;;;;;2.60;1.33;;;2.20;99.90;;;;;;5014332;28;20463;-87
2021/12/05 04:57:41;;;;;;;4.47;1.07;;;2.10;99.90;;;;;;5016138;28;20440;-90
2021/12/05 05:00:16;;;;;;;2.53;1.40;;;2.10;99.90;;;;;;5016015;28;20448;-88
2021/12/05 05:02:43;;;;;;;3.50;1.07;;;;;;;;;;5015995;28;20932;-88
2021/12/05 05:05:12;;;;;;;2.10;0.77;;;1.90;99.90;;;;;;5014825;28;20444;-94
2021/12/05 05:07:41;;;;;;;1.07;0.70;;;1.90;99.90;;;;;;5015561;28;20527;-95
2021/12/05 05:10:17;;;;;;;6.70;1.00;;;1.90;99.90;;;;;;5015523;28;20453;-86
2021/12/05 05:12:44;;;;;;;2.77;1.10;;;;;;;;;;5011969;28;20519;-87
2021/12/05 05:15:11;;;;;;;2.10;1.20;;;;;;;;;;5014916;28;20456;-87
2021/12/05 05:17:39;;;;;;;2.57;0.93;;;;;;;;;;5009221;28;20960;-88
2021/12/05 05:20:19;;;;;;;3.87;1.30;;;1.90;99.90;;;;;;5010798;28;20976;-88
2021/12/05 05:23:00;;;;;;;3.30;1.07;;;;;;;;;;5014626;28;20452;-87
2021/12/05 05:42:40;;;;;;;1.10;0.90;;;1.80;99.90;;;;;;5008756;28;20432;-87
2021/12/05 05:48:02;;;;;;;0.70;0.70;;;;;;;;;;5011810;28;20923;-90
2021/12/05 05:50:29;;;;;;;0.50;0.30;;;;;;;;;;5014063;28;20469;-88
2021/12/05 05:52:56;;;;;;;1.30;0.67;;;;;;;;;;5014751;28;20452;-93
2021/12/05 05:55:23;;;;;;;0.93;0.30;;;;;;;;;;5014639;28;20448;-90
2021/12/05 05:57:59;;;;;;;0.70;0.50;;;1.90;99.90;;;;;;5014692;28;20495;-94
2021/12/05 06:00:32;;;;;;;0.50;0.40;;;1.80;99.90;;;;;;5014751;28;20444;-88
2021/12/05 06:05:45;;;;;;;0.90;0.50;;;;;;;;;;5013530;28;20436;-92
2021/12/05 06:08:12;;;;;;;1.50;0.60;;;;;;;;;;5014179;28;20991;-86
2021/12/05 06:10:39;;;;;;;0.60;0.43;;;;;;;;;;5014132;28;20460;-88
2021/12/05 06:13:08;;;;;;;0.50;0.40;;;1.80;99.90;;;;;;5013928;28;20453;-89
2021/12/05 06:15:35;;;;;;;1.43;1.07;;;;;;;;;;5013847;28;20948;-88
2021/12/05 06:18:02;;;;;;;1.60;0.70;;;;;;;;;;5013778;28;20448;-88
2021/12/05 06:20:31;;;;;;;1.67;0.73;;;1.80;99.90;;;;;;5012421;28;20560;-90
2021/12/05 06:22:58;;;;;;;0.40;0.30;;;;;;;;;;5014207;28;20471;-87
2021/12/05 06:25:27;;;;;;;0.60;0.50;;;1.80;99.90;;;;;;5014189;28;20453;-88
2021/12/05 06:27:57;;;;;;;2.57;1.03;;;1.80;99.90;;;;;;5010548;28;20457;-87
2021/12/05 06:30:34;;;;;;;2.40;0.70;;;1.80;99.90;;;;;;5013798;28;20507;-87
2021/12/05 06:38:53;;;;;;;0.47;0.40;;;;;;;;;;5013530;28;20456;-87
2021/12/05 06:41:33;;;;;;;3.27;1.50;;;1.70;99.90;;;;;;5016892;28;20833;-87
2021/12/05 06:46:58;;;;;;;5.63;1.00;;;1.70;99.90;;;;;;4975207;28;20859;-88
2021/12/05 06:49:26;;;;;;;0.87;0.60;;;;;;;;;;5003335;28;21012;-87
2021/12/05 06:51:53;;;;;;;25.57;1.07;;;;;;;;;;5013492;28;20456;-89
2021/12/05 06:54:20;;;;;;;0.53;0.50;;;;;;;;;;5013470;28;20453;-93
2021/12/05 06:56:47;;;;;;;3.77;0.93;;;;;;;;;;5013587;28;20460;-88
2021/12/05 06:59:14;;;;;;;2.73;0.83;;;;;;;;;;5013404;28;20453;-88
2021/12/05 07:01:42;;;;;;;0.87;0.73;;;;;;;;;;5013621;28;20463;-91
2021/12/05 07:04:20;;;;;;;0.40;0.40;;;1.70;99.90;;;;;;5007654;28;20451;-87
2021/12/05 07:06:47;;;;;;;1.43;0.43;;;;;;;;;;5013226;28;20936;-87
2021/12/05 07:09:15;;;;;;;0.50;0.50;;;;;;;;;;5013231;28;20839;-87
2021/12/05 07:11:49;;;;;;;0.97;0.70;;;;;;;;;;5013057;28;20975;-93
2021/12/05 07:14:35;;;;;;;0.50;0.47;;;;;;;;;;5013222;28;20815;-91
2021/12/05 07:17:07;;;;;;;0.50;0.30;;;;;;;;;;5013751;28;20484;-90
2021/12/05 07:19:48;;;;;;;3.13;0.73;;;1.80;99.90;;;;;;5012822;28;20488;-89
2021/12/05 07:22:21;;;;;;;3.77;0.83;;;;;;;;;;5010508;28;20451;-88
2021/12/05 07:24:52;;;;;;;0.93;0.47;;;;;;;;;;5013632;28;20453;-89
2021/12/05 07:41:19;;;;;;;5.33;2.17;;;;;;;;;;5017692;28;20451;-87
2021/12/05 07:43:46;;;;;;;2.63;1.50;;;1.70;99.90;;;;;;5017567;28;20479;-93
2021/12/05 07:46:14;;;;;;;2.53;1.00;;;;;;;;;;5017009;28;20456;-90
2021/12/05 07:48:44;;;;;;;0.90;0.67;;;;;;;;;;5015808;28;21022;-87
2021/12/05 07:51:23;;;;;;;2.53;1.13;;;1.60;99.90;;;;;;5016822;28;20456;-90
2021/12/05 07:53:55;;;;;;;1.53;0.97;;;1.70;99.90;;;;;;5015556;28;20452;-89
2021/12/05 07:56:33;;;;;;;1.53;0.97;;;1.70;99.90;;;;;;5016867;28;20444;-92
2021/12/05 07:59:19;;;;;;;4.83;0.97;;;;;;;;;;5015005;28;20548;-88
2021/12/05 08:15:39;;;;;;;2.43;1.30;;;;;;;;;;5016781;28;20881;-90
2021/12/05 08:18:06;;;;;;;3.73;1.33;;;;;;;;;;5019078;28;20449;-88
2021/12/05 08:20:42;;;;;;;2.90;0.73;;;2.90;99.90;;;;;;5022482;28;20476;-90
2021/12/05 08:23:12;;;;;;;2.00;1.37;;;3.20;99.90;;;;;;5024485;28;20448;-93
2021/12/05 08:25:44;;;;;;;3.40;1.73;;;3.50;99.90;;;;;;5021869;28;20448;-88
2021/12/05 08:28:26;;;;;;;1.50;1.00;;;3.70;99.90;;;;;;5018255;28;20566;-88
2021/12/05 08:31:06;;;;;;;3.00;1.37;;;;;;;;;;5018089;28;20459;-88
2021/12/05 08:39:32;;;;;;;2.47;1.10;;;3.90;99.90;;;;;;5017578;28;20435;-92
2021/12/05 10:02:23;;;;;;;15.23;8.30;;;7.00;99.90;;;;;;5016180;28;20487;-90
2021/12/05 10:08:27;;;;;;;15.40;7.70;;;;;;;;;;5017482;28;20452;-88
2021/12/05 10:10:41;;;;;;;8.60;6.03;;;;;;;;;;5022611;28;20478;-88
2021/12/05 10:13:17;;;;;;;9.47;7.87;;;;;;;;;;5023646;28;20503;-88
2021/12/05 10:27:13;;;;;;;1.17;1.07;;;;;;;;;;5060600;28;20454;-88
2021/12/05 10:38:22;;;;;;;2.00;0.77;;;6.30;99.90;;;;;;4993502;28;20963;-88
2021/12/05 10:43:35;;;;;;;1.50;1.00;;;;;;;;;;5042026;28;20479;-88
2021/12/05 10:46:08;;;;;;;0.67;0.50;;;6.50;99.90;;;;;;5046495;28;20443;-88
2021/12/05 10:48:42;;;;;;;3.70;1.13;;;6.10;99.90;;;;;;5045284;28;20432;-88
2021/12/05 10:51:13;;;;;;;1.10;0.60;;;5.60;99.90;;;;;;5044857;28;20445;-90
2021/12/05 10:53:44;;;;;;;1.50;0.90;;;5.40;99.90;;;;;;5045566;28;20435;-89
2021/12/05 10:56:15;;;;;;;1.50;1.00;;;5.30;99.90;;;;;;5042923;28;20448;-90
2021/12/05 10:58:49;;;;;;;0.80;0.60;;;5.10;99.90;;;;;;5041609;28;20935;-90
2021/12/05 11:01:22;;;;;;;0.60;0.50;;;5.30;99.90;;;;;;5040385;28;20452;-87
2021/12/05 11:03:52;;;;;;;2.97;0.70;;;5.10;99.90;;;;;;5036495;28;20441;-89
2021/12/05 11:06:36;;;;;;;1.27;0.37;;;5.00;99.90;;;;;;5042282;28;20802;-88
2021/12/05 11:09:07;;;;;;;3.47;0.73;;;5.10;99.90;;;;;;5038877;28;20443;-88
2021/12/05 11:11:35;;;;;;;0.80;0.50;;;5.00;99.90;;;;;;5039314;28;20444;-87
2021/12/05 11:14:03;;;;;;;0.90;0.43;;;5.20;99.90;;;;;;5035816;28;20470;-88
2021/12/05 11:16:58;;;;;;;1.00;0.60;;;5.70;99.90;;;;;;5038784;28;20798;-88
2021/12/05 11:19:33;;;;;;;1.83;0.50;;;6.00;99.90;;;;;;5027959;28;20527;-87
2021/12/05 11:22:06;;;;;;;1.60;0.80;;;5.50;99.90;;;;;;5036353;28;20471;-87
2021/12/05 11:24:35;;;;;;;1.60;0.73;;;6.00;99.90;;;;;;5041752;28;20459;-87
2021/12/05 11:27:12;;;;;;;1.23;0.60;;;5.70;99.90;;;;;;5036345;28;20443;-88
2021/12/05 11:29:46;;;;;;;0.87;0.70;;;5.60;99.90;;;;;;5034625;28;20498;-87
2021/12/05 11:32:16;;;;;;;0.70;0.60;;;6.50;99.90;;;;;;5038334;28;20446;-87
2021/12/05 11:34:46;;;;;;;4.43;0.73;;;;;;;;;;5037846;28;20463;-88
2021/12/05 11:37:15;;;;;;;1.37;0.50;;;6.00;99.90;;;;;;5038864;28;20979;-87
2021/12/05 11:39:42;;;;;;;0.57;0.40;;;;;;;;;;5036160;28;20452;-89
2021/12/05 11:42:20;;;;;;;1.33;0.50;;;5.00;99.90;;;;;;5041887;28;20451;-88
2021/12/05 11:44:52;;;;;;;0.57;0.47;;;5.00;99.90;;;;;;5044605;28;20818;-90
2021/12/05 11:47:20;;;;;;;15.10;0.80;;;4.90;99.90;;;;;;5040645;28;20468;-91
2021/12/05 11:49:48;;;;;;;2.27;1.10;;;;;;;;;;5038309;28;20982;-90
2021/12/05 11:52:23;;;;;;;0.90;0.73;;;5.00;99.90;;;;;;5039715;28;20454;-89
2021/12/05 11:54:51;;;;;;;1.43;0.50;;;;;;;;;;5043917;28;20778;-88
2021/12/05 11:57:20;;;;;;;0.60;0.50;;;5.20;99.90;;;;;;5039457;28;20485;-89
2021/12/05 11:59:50;;;;;;;0.40;0.30;;;5.50;99.90;;;;;;5039130;28;21078;-90
2021/12/05 12:02:20;;;;;;;1.27;0.83;;;5.40;99.90;;;;;;5040016;28;20456;-90
2021/12/05 12:04:52;;;;;;;0.80;0.50;;;5.80;99.90;;;;;;5036538;28;20436;-89
2021/12/05 12:07:29;;;;;;;1.03;0.60;;;6.10;99.90;;;;;;5039591;28;20443;-89
2021/12/05 12:10:13;;;;;;;16.43;9.00;;;6.80;99.90;;;;;;5066254;22;20497;-91
2021/12/05 12:12:44;;;;;;;29.60;11.53;;;6.30;99.90;;;;;;5070132;28;20432;-91
2021/12/05 12:15:11;;;;;;;2.07;1.10;;;;;;;;;;5053035;28;20961;-92
2021/12/05 12:17:38;;;;;;;3.63;1.93;;;;;;;;;;5058635;28;20959;-91
2021/12/05 12:20:12;;;;;;;16.33;7.10;;;5.40;99.90;;;;;;5057272;28;20443;-91
2021/12/05 12:22:41;;;;;;;8.03;3.27;;;5.10;99.90;;;;;;5053255;28;20535;-91
2021/12/05 12:25:12;;;;;;;9.37;5.30;;;5.30;99.90;;;;;;5051289;28;20454;-92
2021/12/05 12:27:42;;;;;;;13.63;6.93;;;5.90;99.90;;;;;;5058529;28;20969;-91
2021/12/05 12:30:11;;;;;;;11.30;5.60;;;6.30;99.90;;;;;;5059627;28;20494;-91
2021/12/05 12:32:42;;;;;;;1.73;0.90;;;7.40;99.90;;;;;;5058263;28;20432;-91
2021/12/05 12:35:12;;;;;;;1.63;0.90;;;8.00;99.90;;;;;;5057324;28;20439;-93
2021/12/05 12:38:01;;;;;;;4.87;2.50;;;8.30;99.90;;;;;;5063308;28;20447;-91
2021/12/05 12:40:39;;;;;;;0.40;0.30;;;6.60;99.90;;;;;;5063571;28;20439;-94
2021/12/05 12:43:09;;;;;;;1.00;0.37;;;6.30;99.90;;;;;;5062095;28;20923;-95
2021/12/05 12:45:39;;;;;;;0.50;0.50;;;5.90;99.90;;;;;;5067654;28;20499;-95
2021/12/05 12:48:11;;;;;;;1.80;0.60;;;6.10;99.90;;;;;;5064846;28;20459;-94
2021/12/05 12:50:50;;;;;;;0.87;0.77;;;6.00;99.90;;;;;;5061582;28;20501;-90
2021/12/05 12:53:23;;;;;;;0.87;0.57;;;5.80;99.90;;;;;;5065681;28;20439;-90
2021/12/05 12:55:57;;;;;;;1.23;0.80;;;5.90;99.90;;;;;;5065426;28;20517;-93
2021/12/05 12:58:45;;;;;;;0.60;0.50;;;5.80;99.90;;;;;;5068133;28;20441;-92
2021/12/05 13:01:30;;;;;;;2.80;0.50;;;5.60;99.90;;;;;;5063492;28;20466;-89
2021/12/05 13:10:02;;;;;;;0.60;0.50;;;5.50;99.90;;;;;;5061203;28;20469;-90
2021/12/05 13:12:35;;;;;;;0.93;0.57;;;5.00;99.90;;;;;;5063495;28;20455;-91
2021/12/05 13:15:07;;;;;;;0.50;0.30;;;5.30;99.90;;;;;;5064876;28;20458;-92
2021/12/05 13:17:44;;;;;;;1.40;0.63;;;5.40;99.90;;;;;;5062357;28;20447;-89
2021/12/05 13:20:21;;;;;;;1.20;1.10;;;5.40;99.90;;;;;;5059369;28;20533;-91
2021/12/05 13:23:11;;;;;;;7.63;6.03;;;5.20;99.90;;;;;;5061366;28;20453;-91
2021/12/05 13:26:03;;;;;;;3.17;2.00;;;5.00;99.90;;;;;;5065003;28;20458;-89
2021/12/05 13:28:35;;;;;;;6.70;4.30;;;5.00;99.90;;;;;;5070473;22;20483;-91
2021/12/05 13:31:36;;;;;;;4.33;2.37;;;5.00;99.90;;;;;;5020967;28;20488;-92
2021/12/05 13:34:25;;;;;;;1.70;1.43;;;5.10;99.90;;;;;;5024262;28;20482;-90
2021/12/05 13:36:55;;;;;;;0.83;0.60;;;4.90;99.90;;;;;;5044074;28;20468;-90
2021/12/05 13:39:41;;;;;;;1.00;0.73;;;5.00;99.90;;;;;;5042193;28;20452;-90
2021/12/05 13:42:13;;;;;;;1.73;0.60;;;4.80;99.90;;;;;;5042145;28;20443;-90
2021/12/05 13:45:04;;;;;;;2.47;2.27;;;4.80;99.90;;;;;;5042341;28;20445;-91
2021/12/05 13:47:34;;;;;;;2.17;1.97;;;4.80;99.90;;;;;;5044385;28;20455;-90
2021/12/05 13:50:30;;;;;;;1.60;0.93;;;4.70;99.90;;;;;;5031973;28;20503;-88
2021/12/05 13:53:00;;;;;;;2.30;1.77;;;4.80;99.90;;;;;;5046148;28;20436;-91
2021/12/05 13:55:40;;;;;;;2.27;1.80;;;5.30;99.90;;;;;;5049639;28;20426;-93
2021/12/05 13:58:24;;;;;;;3.00;1.60;;;6.00;99.90;;;;;;5043685;23;20484;-89
2021/12/05 14:00:55;;;;;;;7.30;5.90;;;7.10;99.90;;;;;;5013489;28;20457;-88
2021/12/05 14:03:49;;;;;;;2.60;1.90;;;7.00;99.90;;;;;;5029203;28;20451;-87
2021/12/05 14:06:36;;;;;;;3.40;0.90;;;6.30;99.90;;;;;;5001554;28;20517;-89
2021/12/05 14:09:08;;;;;;;1.17;0.80;;;6.10;99.90;;;;;;4999111;28;20456;-89
2021/12/05 14:11:37;;;;;;;1.50;0.63;;;5.80;99.90;;;;;;5000602;28;20492;-89
2021/12/05 14:14:07;;;;;;;1.23;1.00;;;6.10;99.90;;;;;;5000268;28;20446;-89
2021/12/05 14:16:36;;;;;;;1.20;0.70;;;6.40;99.90;;;;;;4995293;28;20466;-90
2021/12/05 14:19:04;;;;;;;1.97;1.20;;;6.70;99.90;;;;;;4994818;28;20933;-89
2021/12/05 14:21:33;;;;;;;2.13;1.40;;;6.00;99.90;;;;;;4991633;28;20499;-88
2021/12/05 14:24:02;;;;;;;2.47;1.10;;;6.20;99.90;;;;;;4997032;28;20533;-89
2021/12/05 14:26:30;;;;;;;2.47;1.80;;;6.00;99.90;;;;;;5009889;23;20450;-89
2021/12/05 14:29:00;;;;;;;1.00;0.80;;;5.90;99.90;;;;;;5021083;28;20515;-89
2021/12/05 14:31:33;;;;;;;3.10;2.27;;;5.70;99.90;;;;;;5024692;28;20484;-89
2021/12/05 14:34:00;;;;;;;2.43;1.00;;;;;;;;;;5021042;28;20456;-90
2021/12/05 14:36:29;;;;;;;2.17;1.10;;;5.40;99.90;;;;;;5023250;28;20475;-88
2021/12/05 14:39:12;;;;;;;1.00;0.80;;;5.60;99.90;;;;;;5022861;28;20456;-89
2021/12/05 14:41:40;;;;;;;0.77;0.70;;;;;;;;;;5024605;28;20452;-88
2021/12/05 14:44:07;;;;;;;2.27;0.93;;;;;;;;;;5023759;28;20452;-89
2021/12/05 14:47:01;;;;;;;3.03;1.13;;;4.80;99.90;;;;;;5026541;28;20436;-90
2021/12/05 14:49:31;;;;;;;2.30;1.00;;;4.90;99.90;;;;;;5012855;28;20451;-90
2021/12/05 14:51:58;;;;;;;2.40;1.10;;;;;;;;;;5029463;28;20481;-90
2021/12/05 14:54:29;;;;;;;2.30;0.80;;;4.70;99.90;;;;;;5024846;28;20457;-88
2021/12/05 14:56:56;;;;;;;1.37;1.00;;;;;;;;;;5029642;28;20451;-90
2021/12/05 14:59:24;;;;;;;0.70;0.70;;;;;;;;;;5028733;28;20445;-89
2021/12/05 15:01:55;;;;;;;1.63;0.80;;;3.90;99.90;;;;;;5030202;28;20453;-91
2021/12/05 15:04:29;;;;;;;1.67;0.83;;;3.70;99.90;;;;;;5032486;28;20437;-89
2021/12/05 15:07:00;;;;;;;2.70;1.40;;;;;;;;;;5048215;22;20543;-89
2021/12/05 15:09:31;;;;;;;2.20;1.20;;;3.60;99.90;;;;;;5091365;22;20493;-89
2021/12/05 15:12:05;;;;;;;2.37;1.70;;;3.70;99.90;;;;;;5077696;22;20490;-90
2021/12/05 15:14:37;;;;;;;4.97;3.43;;;3.50;99.90;;;;;;5076618;22;20509;-90
2021/12/05 15:17:09;;;;;;;3.17;2.50;;;3.40;99.90;;;;;;5073092;28;20415;-90
2021/12/05 15:19:41;;;;;;;5.23;2.57;;;3.30;99.90;;;;;;5069765;28;20449;-90
2021/12/05 15:22:23;;;;;;;2.73;2.00;;;3.30;99.90;;;;;;5079535;22;20482;-90
2021/12/05 15:24:53;;;;;;;2.40;1.90;;;3.20;99.90;;;;;;5077599;23;20486;-89
2021/12/05 15:27:24;;;;;;;3.73;2.30;;;3.10;99.90;;;;;;5077839;22;20837;-90
2021/12/05 15:29:53;;;;;;;4.03;1.70;;;3.10;99.90;;;;;;5073637;22;20491;-89
2021/12/05 15:32:26;;;;;;;3.10;1.60;;;3.10;99.90;;;;;;5070478;28;20490;-89
2021/12/05 15:34:57;;;;;;;1.80;1.00;;;3.10;99.90;;;;;;5070572;28;20501;-90
2021/12/05 15:37:24;;;;;;;2.90;1.40;;;;;;;;;;5067409;28;20451;-89
2021/12/05 15:39:53;;;;;;;2.70;1.80;;;3.00;99.90;;;;;;5042874;28;20440;-92
2021/12/05 15:42:24;;;;;;;1.83;1.63;;;2.90;99.90;;;;;;5033412;28;20514;-90
2021/12/05 15:44:53;;;;;;;3.30;2.17;;;2.90;99.90;;;;;;5033341;28;20440;-92
2021/12/05 15:47:22;;;;;;;5.50;2.33;;;2.80;99.90;;;;;;5036625;28;20447;-89
2021/12/05 15:50:08;;;;;;;4.80;3.20;;;2.80;99.90;;;;;;5035924;28;20451;-93
2021/12/05 15:52:39;;;;;;;6.37;3.77;;;2.80;99.90;;;;;;5034688;28;20494;-87
2021/12/05 15:55:11;;;;;;;5.77;3.60;;;2.90;99.90;;;;;;5039212;28;20456;-95
2021/12/05 15:57:40;;;;;;;8.73;4.93;;;2.90;99.90;;;;;;5039669;28;20452;-88
2021/12/05 16:00:16;;;;;;;11.47;5.70;;;2.90;99.90;;;;;;5038008;28;20447;-92
2021/12/05 16:02:47;;;;;;;6.30;4.03;;;;;;;;;;5040246;28;20451;-88
2021/12/05 16:05:22;;;;;;;10.70;5.07;;;2.70;99.90;;;;;;5036782;28;20458;-94
2021/12/05 16:07:50;;;;;;;8.30;5.57;;;;;;;;;;5037681;28;20940;-90
2021/12/05 16:10:21;;;;;;;11.90;6.50;;;2.70;99.90;;;;;;5037036;28;20448;-87
2021/12/05 16:12:49;;;;;;;14.90;8.20;;;2.60;99.90;;;;;;5040242;28;20986;-92
2021/12/05 16:15:18;;;;;;;17.70;9.63;;;2.60;99.90;;;;;;5040949;28;20448;-88
2021/12/05 16:17:53;;;;;;;14.10;8.63;;;2.60;99.90;;;;;;5043397;28;20527;-91
2021/12/05 16:20:26;;;;;;;14.97;9.33;;;;;;;;;;5042185;28;20439;-88
2021/12/05 16:23:15;;;;;;;13.63;8.93;;;2.60;99.90;;;;;;5046380;28;20444;-87
2021/12/05 16:25:56;;;;;;;8.97;6.00;;;2.60;99.90;;;;;;5037266;28;20950;-88
2021/12/05 16:28:25;;;;;;;6.30;4.27;;;2.60;99.90;;;;;;5044807;28;20967;-87
2021/12/05 16:30:59;;;;;;;8.30;4.53;;;2.60;99.90;;;;;;5033514;28;20491;-86
2021/12/05 16:33:29;;;;;;;5.10;3.13;;;;;;;;;;5031615;28;20440;-87
2021/12/05 16:35:59;;;;;;;5.27;3.30;;;2.60;99.90;;;;;;5033899;28;20471;-87
2021/12/05 16:38:29;;;;;;;7.27;3.70;;;2.50;99.90;;;;;;5038089;28;20439;-87
2021/12/05 16:41:00;;;;;;;7.50;3.93;;;2.50;99.90;;;;;;5042083;28;20449;-88
2021/12/05 16:43:28;;;;;;;10.60;5.10;;;2.40;99.90;;;;;;5036124;28;20450;-87
2021/12/05 16:46:09;;;;;;;7.77;3.70;;;;;;;;;;5052542;28;20455;-86
2021/12/05 16:48:50;;;;;;;6.80;4.70;;;2.30;99.90;;;;;;5054598;28;20465;-89
2021/12/05 16:51:24;;;;;;;6.57;4.70;;;2.30;99.90;;;;;;5055954;28;20532;-87
2021/12/05 16:54:03;;;;;;;6.70;4.60;;;2.40;99.90;;;;;;5055103;28;20451;-94
2021/12/05 16:56:44;;;;;;;7.90;4.30;;;2.30;99.90;;;;;;5055255;28;20520;-86
2021/12/05 16:59:15;;;;;;;6.30;3.90;;;2.30;99.90;;;;;;5054863;28;20478;-90
2021/12/05 17:01:42;;;;;;;7.87;4.80;;;;;;;;;;5054969;28;20455;-90
2021/12/05 17:04:12;;;;;;;4.27;3.40;;;;;;;;;;5055096;28;20856;-91
2021/12/05 17:06:54;;;;;;;10.23;6.67;;;2.20;99.90;;;;;;5053303;28;20450;-89
2021/12/05 17:09:22;;;;;;;11.90;5.23;;;;;;;;;;5055129;28;20930;-92
2021/12/05 17:11:49;;;;;;;9.37;4.80;;;;;;;;;;5055849;28;20875;-85
2021/12/05 17:14:25;;;;;;;6.90;4.93;;;2.20;99.90;;;;;;5024944;28;20458;-85
2021/12/05 17:16:52;;;;;;;7.93;4.93;;;2.20;99.90;;;;;;5073511;28;20450;-86
2021/12/05 17:19:23;;;;;;;11.80;5.90;;;;;;;;;;5072445;28;20977;-88
2021/12/05 17:21:52;;;;;;;9.43;4.50;;;2.20;99.90;;;;;;5073382;28;20454;-88
2021/12/05 17:24:21;;;;;;;6.93;4.00;;;2.10;99.90;;;;;;5073540;28;20457;-85
2021/12/05 17:26:49;;;;;;;8.53;4.30;;;2.00;99.90;;;;;;5070541;28;20507;-85
2021/12/05 17:29:20;;;;;;;4.70;3.53;;;2.00;99.90;;;;;;5072281;28;20489;-85
2021/12/05 17:31:50;;;;;;;19.17;7.17;;;2.00;99.90;;;;;;5062350;28;20851;-90
2021/12/05 17:34:22;;;;;;;17.93;10.97;;;1.90;99.90;;;;;;5059582;28;20471;-85
2021/12/05 17:36:56;;;;;;;10.37;5.73;;;1.80;99.90;;;;;;5058331;28;20454;-92
2021/12/05 17:39:27;;;;;;;29.10;16.00;;;1.80;99.90;;;;;;5053135;28;20458;-91
2021/12/05 17:41:56;;;;;;;15.00;9.60;;;1.80;99.90;;;;;;5037866;28;20439;-94
2021/12/05 17:44:24;;;;;;;29.37;16.20;;;;;;;;;;5054887;28;20447;-92
2021/12/05 17:46:54;;;;;;;27.03;12.90;;;;;;;;;;5054970;28;20524;-92
2021/12/05 17:49:23;;;;;;;15.40;9.07;;;;;;;;;;5053002;28;20443;-85
2021/12/05 17:51:50;;;;;;;13.60;8.67;;;;;;;;;;5049697;28;20522;-87
2021/12/05 17:54:28;;;;;;;12.30;7.23;;;;;;;;;;5068658;28;20511;-87
2021/12/05 17:56:57;;;;;;;9.00;5.93;;;;;;;;;;5072920;28;20438;-86
2021/12/05 17:59:29;;;;;;;8.40;6.40;;;1.60;99.90;;;;;;5072810;28;20445;-87
2021/12/05 18:04:43;;;;;;;9.30;6.20;;;1.50;99.90;;;;;;5071707;28;20445;-86
2021/12/05 18:07:12;;;;;;;16.33;9.20;;;1.40;99.90;;;;;;5072948;28;20458;-91
2021/12/05 18:09:41;;;;;;;17.97;9.30;;;1.40;99.90;;;;;;5072837;28;20450;-89
2021/12/05 18:12:13;;;;;;;15.40;9.13;;;1.50;99.90;;;;;;5072689;28;20516;-87
2021/12/05 18:14:40;;;;;;;13.30;8.10;;;;;;;;;;5072367;28;20470;-90
2021/12/05 18:17:08;;;;;;;7.87;5.37;;;;;;;;;;5072380;28;20455;-84
2021/12/05 18:19:35;;;;;;;6.50;5.37;;;;;;;;;;5060582;28;20459;-87
2021/12/05 18:22:04;;;;;;;6.70;4.50;;;;;;;;;;5065182;28;20459;-88
2021/12/05 18:24:31;;;;;;;10.00;5.67;;;;;;;;;;5053257;28;20474;-85
2021/12/05 18:27:01;;;;;;;9.07;5.77;;;1.30;99.90;;;;;;5060158;28;20454;-85
2021/12/05 18:29:28;;;;;;;11.27;5.70;;;;;;;;;;5055169;28;20482;-90